createdAt,value
2017-11-09T00:00:20.858Z,95.30
2017-11-09T00:02:50.809Z,95.30
2017-11-09T00:05:23.585Z,95.10
2017-11-09T00:07:50.528Z,95.20
2017-11-09T00:10:17.388Z,95.20
2017-11-09T00:12:44.325Z,95.50
2017-11-09T00:15:11.213Z,95.10
2017-11-09T00:17:40.108Z,95.10
2017-11-09T00:20:07.792Z,95.10
2017-11-09T00:22:34.659Z,95.10
2017-11-09T00:25:01.598Z,95.00
2017-11-09T00:27:28.561Z,94.70
2017-11-09T00:29:55.513Z,94.60
2017-11-09T00:32:22.386Z,94.80
2017-11-09T00:34:49.252Z,94.90
2017-11-09T00:37:16.927Z,94.90
2017-11-09T00:39:43.881Z,94.90
2017-11-09T00:42:10.746Z,94.90
2017-11-09T00:44:37.673Z,94.80
2017-11-09T00:47:04.628Z,95.10
2017-11-09T00:49:31.497Z,94.80
2017-11-09T00:51:58.431Z,94.70
2017-11-09T00:54:25.299Z,94.90
2017-11-09T00:56:52.209Z,94.80
2017-11-09T00:59:19.146Z,94.90
2017-11-09T01:01:46.024Z,94.90
2017-11-09T01:04:12.968Z,94.80
2017-11-09T01:06:39.922Z,94.90
2017-11-09T01:09:06.800Z,94.90
2017-11-09T01:11:34.496Z,95.10
2017-11-09T01:14:01.425Z,95.10
2017-11-09T01:16:28.306Z,94.80
2017-11-09T01:18:55.286Z,94.70
2017-11-09T01:21:22.184Z,95.00
2017-11-09T01:23:49.061Z,94.70
2017-11-09T01:26:16.008Z,94.90
2017-11-09T01:28:42.867Z,94.70
2017-11-09T01:31:10.624Z,94.90
2017-11-09T01:33:37.958Z,94.80
2017-11-09T01:36:04.872Z,94.80
2017-11-09T01:38:31.888Z,94.70
2017-11-09T01:40:59.586Z,94.70
2017-11-09T01:43:26.465Z,95.00
2017-11-09T01:45:53.428Z,94.90
2017-11-09T01:48:20.356Z,94.70
2017-11-09T01:50:47.316Z,95.10
2017-11-09T01:53:14.308Z,94.80
2017-11-09T01:55:41.193Z,94.90
2017-11-09T01:58:08.163Z,94.90
2017-11-09T02:00:35.173Z,94.80
2017-11-09T02:03:02.222Z,94.80
2017-11-09T02:05:29.130Z,94.80
2017-11-09T02:07:56.046Z,94.80
2017-11-09T02:10:23.024Z,94.80
2017-11-09T02:12:49.897Z,94.80
2017-11-09T02:15:16.792Z,94.80
2017-11-09T02:17:43.773Z,94.80
2017-11-09T02:20:10.716Z,94.90
2017-11-09T02:22:37.812Z,95.00
2017-11-09T02:25:04.761Z,95.00
2017-11-09T02:27:31.839Z,94.90
2017-11-09T02:29:58.878Z,94.80
2017-11-09T02:32:25.946Z,94.90
2017-11-09T02:34:52.932Z,94.60
2017-11-09T02:37:19.910Z,94.80
2017-11-09T02:39:46.884Z,94.70
2017-11-09T02:42:14.550Z,94.90
2017-11-09T02:44:41.433Z,94.80
2017-11-09T02:47:08.427Z,94.70
2017-11-09T02:49:35.377Z,94.70
2017-11-09T02:52:02.365Z,94.80
2017-11-09T02:54:31.085Z,94.70
2017-11-09T02:56:58.109Z,94.70
2017-11-09T02:59:27.026Z,94.60
2017-11-09T03:01:53.994Z,94.60
2017-11-09T03:04:20.926Z,94.60
2017-11-09T03:06:47.816Z,94.40
2017-11-09T03:09:14.770Z,94.60
2017-11-09T03:11:41.707Z,94.60
2017-11-09T03:14:08.664Z,94.60
2017-11-09T03:16:35.533Z,94.70
2017-11-09T03:19:02.406Z,94.80
2017-11-09T03:21:29.348Z,94.90
2017-11-09T03:23:56.301Z,94.70
2017-11-09T03:26:23.247Z,94.50
2017-11-09T03:28:50.161Z,94.40
2017-11-09T03:31:17.038Z,94.20
2017-11-09T03:33:43.969Z,94.20
2017-11-09T03:36:10.869Z,94.50
2017-11-09T03:38:37.753Z,94.40
2017-11-09T03:41:04.689Z,94.50
2017-11-09T03:43:31.651Z,94.50
2017-11-09T03:45:58.718Z,94.50
2017-11-09T03:48:25.629Z,94.50
2017-11-09T03:50:52.570Z,94.50
2017-11-09T03:53:19.535Z,94.50
2017-11-09T03:55:46.401Z,94.50
2017-11-09T03:58:13.270Z,94.60
2017-11-09T04:00:40.203Z,94.50
2017-11-09T04:03:07.808Z,94.80
2017-11-09T04:05:34.794Z,94.50
2017-11-09T04:08:01.763Z,94.70
2017-11-09T04:10:29.452Z,94.50
2017-11-09T04:12:56.472Z,94.50
2017-11-09T04:15:23.436Z,94.30
2017-11-09T04:17:50.342Z,94.60
2017-11-09T04:20:17.243Z,94.50
2017-11-09T04:22:44.217Z,94.40
2017-11-09T04:25:11.100Z,94.20
2017-11-09T04:27:38.092Z,94.10
2017-11-09T04:30:04.989Z,94.00
2017-11-09T04:32:32.694Z,94.10
2017-11-09T04:34:59.578Z,94.10
2017-11-09T04:37:26.472Z,93.80
2017-11-09T04:39:53.453Z,93.60
2017-11-09T04:42:20.360Z,94.00
2017-11-09T04:44:47.297Z,94.10
2017-11-09T04:47:14.226Z,94.00
2017-11-09T04:49:42.626Z,93.90
2017-11-09T04:52:09.560Z,94.10
2017-11-09T04:54:37.273Z,93.80
2017-11-09T04:57:04.225Z,93.80
2017-11-09T04:59:31.152Z,94.00
2017-11-09T05:01:58.096Z,94.10
2017-11-09T05:04:25.029Z,94.60
2017-11-09T05:06:51.956Z,94.90
2017-11-09T05:09:18.929Z,94.60
2017-11-09T05:11:46.463Z,94.90
2017-11-09T05:14:13.363Z,94.60
2017-11-09T05:16:40.389Z,94.70
2017-11-09T05:19:07.268Z,94.80
2017-11-09T05:21:34.161Z,95.20
2017-11-09T05:24:01.240Z,94.90
2017-11-09T05:26:32.638Z,95.10
2017-11-09T05:29:00.532Z,94.30
2017-11-09T05:31:27.466Z,94.10
2017-11-09T05:33:57.356Z,94.10
2017-11-09T05:36:25.132Z,94.20
2017-11-09T05:38:53.501Z,94.00
2017-11-09T05:41:20.471Z,93.80
2017-11-09T05:43:48.172Z,94.60
2017-11-09T05:46:15.071Z,94.60
2017-11-09T05:48:53.933Z,95.00
2017-11-09T05:51:22.584Z,95.10
2017-11-09T05:53:50.288Z,95.10
2017-11-09T05:56:17.268Z,95.10
2017-11-09T05:58:44.275Z,94.60
2017-11-09T06:01:13.724Z,94.40
2017-11-09T06:03:41.517Z,94.20
2017-11-09T06:06:09.902Z,94.00
2017-11-09T06:08:38.847Z,93.70
2017-11-09T06:11:07.878Z,93.70
2017-11-09T06:13:34.813Z,93.70
2017-11-09T06:16:02.367Z,93.70
2017-11-09T06:18:30.170Z,93.40
2017-11-09T06:20:57.852Z,93.50
2017-11-09T06:23:25.215Z,93.50
2017-11-09T06:25:52.324Z,94.20
2017-11-09T06:28:19.277Z,94.20
2017-11-09T06:30:48.837Z,93.70
2017-11-09T06:33:15.952Z,93.70
2017-11-09T06:35:42.953Z,93.60
2017-11-09T06:38:09.841Z,93.60
2017-11-09T06:40:40.092Z,94.10
2017-11-09T06:43:08.219Z,93.70
2017-11-09T06:45:35.344Z,93.80
2017-11-09T06:48:02.289Z,93.60
2017-11-09T06:50:29.775Z,93.50
2017-11-09T06:52:56.799Z,93.50
2017-11-09T06:55:23.707Z,93.30
2017-11-09T06:57:50.581Z,93.40
2017-11-09T07:00:17.531Z,93.30
2017-11-09T07:02:44.437Z,93.30
2017-11-09T07:05:11.329Z,93.20
2017-11-09T07:07:38.278Z,93.10
2017-11-09T07:10:05.269Z,93.00
2017-11-09T07:12:33.203Z,93.60
2017-11-09T07:15:10.314Z,93.60
2017-11-09T07:17:37.959Z,93.70
2017-11-09T07:20:05.701Z,93.70
2017-11-09T07:22:32.621Z,93.70
2017-11-09T07:24:59.528Z,93.70
2017-11-09T07:27:27.330Z,93.90
2017-11-09T07:29:54.273Z,93.90
2017-11-09T07:32:21.241Z,94.10
2017-11-09T07:34:48.218Z,93.90
2017-11-09T07:37:15.110Z,93.80
2017-11-09T07:39:42.072Z,94.00
2017-11-09T07:42:08.982Z,93.80
2017-11-09T07:44:35.917Z,93.90
2017-11-09T07:47:02.909Z,93.80
2017-11-09T07:49:29.837Z,93.20
2017-11-09T07:51:56.809Z,93.20
2017-11-09T07:54:23.803Z,93.40
2017-11-09T07:56:51.457Z,92.70
2017-11-09T07:59:18.377Z,92.70
2017-11-09T08:01:45.738Z,92.20
2017-11-09T08:04:12.645Z,91.60
2017-11-09T08:06:41.495Z,91.40
2017-11-09T08:09:09.277Z,91.60
2017-11-09T08:11:36.242Z,91.70
2017-11-09T08:14:03.174Z,91.50
2017-11-09T08:16:30.478Z,91.50
2017-11-09T08:18:57.478Z,91.30
2017-11-09T08:21:24.450Z,91.40
2017-11-09T08:23:51.405Z,91.60
2017-11-09T08:26:19.891Z,91.40
2017-11-09T08:28:47.812Z,91.30
2017-11-09T08:31:24.816Z,91.30
2017-11-09T08:33:51.678Z,91.30
2017-11-09T08:36:18.704Z,91.20
2017-11-09T08:38:45.604Z,91.70
2017-11-09T08:41:12.571Z,92.00
2017-11-09T08:43:40.199Z,91.90
2017-11-09T08:46:07.096Z,91.90
2017-11-09T08:48:34.058Z,91.80
2017-11-09T08:51:01.165Z,91.50
2017-11-09T08:53:28.033Z,90.90
2017-11-09T08:55:54.970Z,91.10
2017-11-09T08:58:22.673Z,91.60
2017-11-09T09:00:49.589Z,91.30
2017-11-09T09:03:16.657Z,91.40
2017-11-09T09:05:43.542Z,91.00
2017-11-09T09:08:10.421Z,90.70
2017-11-09T09:10:38.203Z,91.00
2017-11-09T09:13:05.161Z,90.90
2017-11-09T09:15:32.177Z,90.80
2017-11-09T09:18:05.791Z,90.70
2017-11-09T09:20:50.121Z,90.70
2017-11-09T09:23:21.062Z,91.00
2017-11-09T09:25:52.250Z,90.80
2017-11-09T09:28:34.856Z,91.00
2017-11-09T09:31:01.932Z,91.20
2017-11-09T09:33:31.502Z,90.60
2017-11-09T09:36:03.838Z,91.10
2017-11-09T09:38:34.469Z,91.00
2017-11-09T09:41:01.490Z,90.70
2017-11-09T09:43:28.453Z,90.80
2017-11-09T09:45:55.456Z,90.40
2017-11-09T09:48:22.426Z,90.10
2017-11-09T09:50:49.431Z,90.00
2017-11-09T09:53:17.041Z,91.00
2017-11-09T09:55:44.021Z,90.70
2017-11-09T09:58:10.905Z,90.70
2017-11-09T10:00:37.973Z,90.60
2017-11-09T10:03:04.861Z,90.70
2017-11-09T10:05:31.757Z,91.00
2017-11-09T10:07:58.706Z,91.10
2017-11-09T10:10:25.681Z,91.10
2017-11-09T10:12:52.542Z,91.10
2017-11-09T10:15:19.476Z,90.80
2017-11-09T10:17:46.425Z,90.60
2017-11-09T10:20:13.382Z,90.70
2017-11-09T10:22:40.329Z,91.00
2017-11-09T10:25:07.321Z,90.70
2017-11-09T10:27:34.269Z,90.60
2017-11-09T10:30:01.150Z,90.70
2017-11-09T10:32:30.130Z,91.00
2017-11-09T10:34:57.022Z,90.60
2017-11-09T10:37:24.021Z,90.80
2017-11-09T10:39:50.877Z,90.80
2017-11-09T10:42:17.837Z,90.50
2017-11-09T10:44:44.737Z,90.30
2017-11-09T10:47:11.700Z,90.40
2017-11-09T10:49:38.607Z,90.60
2017-11-09T10:52:06.901Z,90.40
2017-11-09T10:54:33.930Z,90.40
2017-11-09T10:57:01.588Z,91.00
2017-11-09T10:59:28.584Z,90.70
2017-11-09T11:01:55.545Z,90.20
2017-11-09T11:04:22.526Z,90.10
2017-11-09T11:06:49.538Z,90.20
2017-11-09T11:09:16.496Z,90.40
2017-11-09T11:11:43.350Z,90.40
2017-11-09T11:14:10.292Z,90.40
2017-11-09T11:16:37.185Z,90.70
2017-11-09T11:19:04.146Z,90.80
2017-11-09T11:21:31.021Z,90.80
2017-11-09T11:23:58.004Z,90.80
2017-11-09T11:26:24.944Z,90.80
2017-11-09T11:28:52.651Z,90.50
2017-11-09T11:31:19.626Z,90.50
2017-11-09T11:33:46.491Z,90.70
2017-11-09T11:36:13.482Z,90.70
2017-11-09T11:38:40.345Z,91.00
2017-11-09T11:41:07.308Z,91.20
2017-11-09T11:43:34.172Z,91.30
2017-11-09T11:46:01.164Z,91.10
2017-11-09T11:48:28.148Z,91.10
2017-11-09T11:50:55.027Z,91.60
2017-11-09T11:53:22.016Z,91.30
2017-11-09T11:55:48.918Z,91.20
2017-11-09T11:58:16.644Z,91.70
2017-11-09T12:00:43.609Z,91.70
2017-11-09T12:03:11.381Z,91.70
2017-11-09T12:05:38.343Z,91.70
2017-11-09T12:08:05.207Z,91.70
2017-11-09T12:10:32.165Z,91.80
2017-11-09T12:12:59.063Z,91.90
2017-11-09T12:15:25.987Z,91.80
2017-11-09T12:17:52.945Z,91.90
2017-11-09T12:20:19.857Z,92.10
2017-11-09T12:22:46.841Z,92.20
2017-11-09T12:25:13.710Z,92.30
2017-11-09T12:27:40.592Z,92.50
2017-11-09T12:30:07.600Z,92.50
2017-11-09T12:32:35.238Z,92.90
2017-11-09T12:35:02.191Z,92.80
2017-11-09T12:37:29.071Z,92.60
2017-11-09T12:39:56.029Z,92.80
2017-11-09T12:42:22.941Z,92.90
2017-11-09T12:44:49.945Z,93.00
2017-11-09T12:47:16.898Z,92.80
2017-11-09T12:49:43.885Z,92.80
2017-11-09T12:52:11.557Z,93.10
2017-11-09T12:54:39.193Z,93.10
2017-11-09T12:57:06.108Z,93.10
2017-11-09T12:59:33.186Z,93.00
2017-11-09T13:02:00.203Z,92.60
2017-11-09T13:04:27.125Z,92.10
2017-11-09T13:06:54.258Z,91.80
2017-11-09T13:09:21.291Z,91.20
2017-11-09T13:11:48.669Z,91.60
2017-11-09T13:14:15.718Z,90.50
2017-11-09T13:16:42.764Z,90.50
2017-11-09T13:19:09.901Z,90.80
2017-11-09T13:21:38.038Z,90.60
2017-11-09T13:24:07.997Z,90.70
2017-11-09T13:26:35.939Z,90.90
2017-11-09T13:29:05.403Z,90.90
2017-11-09T13:31:32.448Z,90.40
2017-11-09T13:34:03.653Z,90.10
2017-11-09T13:36:38.915Z,90.00
2017-11-09T13:39:06.763Z,90.40
2017-11-09T13:41:33.712Z,90.10
2017-11-09T13:44:01.346Z,88.90
2017-11-09T13:46:37.284Z,89.00
2017-11-09T13:49:11.419Z,88.70
2017-11-09T13:51:38.373Z,88.70
2017-11-09T13:54:08.036Z,88.90
2017-11-09T13:56:43.718Z,89.20
2017-11-09T13:59:14.095Z,89.10
2017-11-09T14:01:43.054Z,89.20
2017-11-09T14:04:12.247Z,89.10
2017-11-09T14:06:39.195Z,90.00
2017-11-09T14:09:07.164Z,90.10
2017-11-09T14:11:34.179Z,90.60
2017-11-09T14:14:01.550Z,90.50
2017-11-09T14:16:33.769Z,90.70
2017-11-09T14:19:03.790Z,90.60
2017-11-09T14:21:32.319Z,90.90
2017-11-09T14:24:00.546Z,90.80
2017-11-09T14:26:27.504Z,91.20
2017-11-09T14:28:54.526Z,90.90
2017-11-09T14:31:21.429Z,91.20
2017-11-09T14:33:55.387Z,91.40
2017-11-09T14:36:22.906Z,91.10
2017-11-09T14:38:58.364Z,90.80
2017-11-09T14:41:25.712Z,91.00
2017-11-09T14:43:52.644Z,91.10
2017-11-09T14:46:27.521Z,91.50
2017-11-09T14:48:55.702Z,91.50
2017-11-09T14:51:27.723Z,91.80
2017-11-09T14:53:58.476Z,91.80
2017-11-09T14:56:28.081Z,92.00
2017-11-09T15:01:45.409Z,92.10
2017-11-09T15:04:19.510Z,92.20
2017-11-09T15:06:51.579Z,92.40
2017-11-09T15:09:24.708Z,92.90
2017-11-09T15:11:53.048Z,92.60
2017-11-09T15:14:20.266Z,92.70
2017-11-09T15:16:49.118Z,93.00
2017-11-09T15:19:16.133Z,92.90
2017-11-09T15:21:43.048Z,93.00
2017-11-09T15:24:16.439Z,93.40
2017-11-09T15:26:50.982Z,93.50
2017-11-09T15:29:18.015Z,93.30
2017-11-09T15:31:50.103Z,93.50
2017-11-09T15:34:19.088Z,93.40
2017-11-09T15:36:49.920Z,93.90
2017-11-09T15:39:20.361Z,93.90
2017-11-09T15:41:49.483Z,93.70
2017-11-09T15:44:16.741Z,94.10
2017-11-09T15:46:54.844Z,93.80
2017-11-09T15:49:25.081Z,93.90
2017-11-09T15:51:52.751Z,93.80
2017-11-09T15:54:19.669Z,93.90
2017-11-09T15:56:47.560Z,93.90
2017-11-09T15:59:19.406Z,94.10
2017-11-09T16:01:46.424Z,94.30
2017-11-09T16:04:14.124Z,94.10
2017-11-09T16:06:47.184Z,94.10
2017-11-09T16:09:14.838Z,94.30
2017-11-09T16:11:41.902Z,94.30
2017-11-09T16:14:08.966Z,94.40
2017-11-09T16:16:35.886Z,94.30
2017-11-09T16:19:05.413Z,94.60
2017-11-09T16:21:32.455Z,94.30
2017-11-09T16:23:59.692Z,94.30
2017-11-09T16:26:26.793Z,94.30
2017-11-09T16:28:59.682Z,94.40
2017-11-09T16:31:28.991Z,94.30
2017-11-09T16:33:56.172Z,94.40
2017-11-09T16:36:29.456Z,94.40
2017-11-09T16:38:57.402Z,94.20
2017-11-09T16:41:24.755Z,94.30
2017-11-09T16:43:51.799Z,94.30
2017-11-09T16:46:18.719Z,94.60
2017-11-09T16:48:49.560Z,94.20
2017-11-09T16:51:16.770Z,94.40
2017-11-09T16:53:52.492Z,94.40
2017-11-09T16:56:20.822Z,94.50
2017-11-09T16:59:02.507Z,94.80
2017-11-09T17:01:30.024Z,94.70
2017-11-09T17:03:56.971Z,94.60
2017-11-09T17:06:24.069Z,94.70
2017-11-09T17:08:50.962Z,94.60
2017-11-09T17:11:18.877Z,94.70
2017-11-09T17:13:46.498Z,94.90
2017-11-09T17:16:19.429Z,94.50
2017-11-09T17:18:47.269Z,94.70
2017-11-09T17:21:29.396Z,94.70
2017-11-09T17:23:59.388Z,94.60
2017-11-09T17:26:29.773Z,94.90
2017-11-09T17:29:01.688Z,94.70
2017-11-09T17:31:28.859Z,94.50
2017-11-09T17:34:10.592Z,94.60
2017-11-09T17:36:40.930Z,94.70
2017-11-09T17:39:19.442Z,94.70
2017-11-09T17:42:02.066Z,94.90
2017-11-09T17:44:40.491Z,94.80
2017-11-09T17:47:21.230Z,94.90
2017-11-09T17:49:51.631Z,95.00
2017-11-09T17:52:19.375Z,94.80
2017-11-09T17:54:46.270Z,94.70
2017-11-09T17:57:18.403Z,94.90
2017-11-09T17:59:51.403Z,95.00
2017-11-09T18:02:18.349Z,95.00
2017-11-09T18:04:45.236Z,95.20
2017-11-09T18:07:12.174Z,94.90
2017-11-09T18:09:39.071Z,95.00
2017-11-09T18:12:06.855Z,95.00
2017-11-09T18:14:33.737Z,95.00
2017-11-09T18:17:00.668Z,94.80
2017-11-09T18:19:28.368Z,95.00
2017-11-09T18:21:55.284Z,95.00
2017-11-09T18:24:22.260Z,94.80
2017-11-09T18:26:49.222Z,94.70
2017-11-09T18:29:16.201Z,94.70
2017-11-09T18:31:43.143Z,94.80
2017-11-09T18:34:10.909Z,94.60
2017-11-09T18:36:37.980Z,94.40
2017-11-09T18:39:05.014Z,94.40
2017-11-09T18:41:32.056Z,94.50
2017-11-09T18:43:58.999Z,94.70
2017-11-09T18:46:27.762Z,94.50
2017-11-09T18:48:54.851Z,94.50
2017-11-09T18:51:23.218Z,94.60
2017-11-09T18:53:52.731Z,94.80
2017-11-09T18:56:22.452Z,94.70
2017-11-09T18:58:50.036Z,94.60
2017-11-09T19:01:18.301Z,94.70
2017-11-09T19:03:48.005Z,94.80
2017-11-09T19:06:24.918Z,94.50
2017-11-09T19:08:55.375Z,94.60
2017-11-09T19:11:22.588Z,94.90
2017-11-09T19:13:50.930Z,94.80
2017-11-09T19:16:23.345Z,94.90
2017-11-09T19:18:56.901Z,94.90
2017-11-09T19:21:24.912Z,94.90
2017-11-09T19:23:53.237Z,95.00
2017-11-09T19:26:21.670Z,95.00
2017-11-09T19:28:49.833Z,95.00
2017-11-09T19:31:18.291Z,95.20
2017-11-09T19:33:49.081Z,95.20
2017-11-09T19:36:22.047Z,95.30
2017-11-09T19:38:54.243Z,95.30
2017-11-09T19:41:22.292Z,95.30
2017-11-09T19:43:50.215Z,95.30
2017-11-09T19:46:22.111Z,95.40
2017-11-09T19:48:50.891Z,95.50
2017-11-09T19:51:21.246Z,95.60
2017-11-09T19:53:49.290Z,95.50
2017-11-09T19:56:17.985Z,95.50
2017-11-09T19:58:48.814Z,95.60
2017-11-09T20:01:24.253Z,95.60
2017-11-09T20:04:00.006Z,95.70
2017-11-09T20:06:31.510Z,95.80
2017-11-09T20:09:11.613Z,95.70
2017-11-09T20:11:40.301Z,95.60
2017-11-09T20:14:08.754Z,95.90
2017-11-09T20:16:38.747Z,95.60
2017-11-09T20:19:07.723Z,95.50
2017-11-09T20:21:35.247Z,95.50
2017-11-09T20:24:02.724Z,95.50
2017-11-09T20:26:31.293Z,95.20
2017-11-09T20:28:59.634Z,95.20
2017-11-09T20:31:27.882Z,95.20
2017-11-09T20:33:56.673Z,95.30
2017-11-09T20:36:34.562Z,95.20
2017-11-09T20:39:09.570Z,95.30
2017-11-09T20:41:46.745Z,95.40
2017-11-09T20:44:16.790Z,95.50
2017-11-09T20:46:45.230Z,95.50
2017-11-09T20:49:13.016Z,95.50
2017-11-09T20:51:42.695Z,95.70
2017-11-09T20:54:10.766Z,95.70
2017-11-09T20:56:38.701Z,95.80
2017-11-09T20:59:07.509Z,95.80
2017-11-09T21:01:35.705Z,95.70
2017-11-09T21:04:03.851Z,95.70
2017-11-09T21:06:33.041Z,95.80
2017-11-09T21:09:02.612Z,96.10
2017-11-09T21:11:31.623Z,95.80
2017-11-09T21:14:01.244Z,95.70
2017-11-09T21:16:29.525Z,95.70
2017-11-09T21:18:58.325Z,95.50
2017-11-09T21:21:29.567Z,95.50
2017-11-09T21:23:58.374Z,95.50
2017-11-09T21:26:30.362Z,95.70
2017-11-09T21:28:58.587Z,96.00
2017-11-09T21:31:27.413Z,95.90
2017-11-09T21:33:55.326Z,95.80
2017-11-09T21:36:23.946Z,95.90
2017-11-09T21:38:51.825Z,95.70
2017-11-09T21:41:20.837Z,95.70
2017-11-09T21:43:51.233Z,95.50
2017-11-09T21:46:20.104Z,95.40
2017-11-09T21:48:47.831Z,95.20
2017-11-09T21:51:15.826Z,95.10
2017-11-09T21:53:44.094Z,95.10
2017-11-09T21:56:12.300Z,94.80
2017-11-09T21:58:40.848Z,94.50
2017-11-09T22:01:11.318Z,94.40
2017-11-09T22:03:40.360Z,94.40
2017-11-09T22:06:08.121Z,94.20
2017-11-09T22:08:37.583Z,94.00
2017-11-09T22:11:06.199Z,93.90
2017-11-09T22:13:35.593Z,93.80
2017-11-09T22:16:05.100Z,93.70
2017-11-09T22:18:32.659Z,93.60
2017-11-09T22:21:01.683Z,93.70
2017-11-09T22:23:31.009Z,93.60
2017-11-09T22:25:58.898Z,93.50
2017-11-09T22:28:28.224Z,93.60
2017-11-09T22:30:56.326Z,93.80
2017-11-09T22:33:25.075Z,93.80
2017-11-09T22:35:55.407Z,93.70
2017-11-09T22:38:24.545Z,94.00
2017-11-09T22:40:52.679Z,94.00
2017-11-09T22:43:21.212Z,94.10
2017-11-09T22:45:50.759Z,93.90
2017-11-09T22:48:19.760Z,93.80
2017-11-09T22:50:49.090Z,93.50
2017-11-09T22:53:19.018Z,93.50
2017-11-09T22:55:49.670Z,93.30
2017-11-09T22:58:19.197Z,93.30
2017-11-09T23:00:47.581Z,93.30
2017-11-09T23:03:15.904Z,93.20
2017-11-09T23:05:45.375Z,93.40
2017-11-09T23:08:15.174Z,93.50
2017-11-09T23:10:45.402Z,93.70
2017-11-09T23:13:15.295Z,93.70
2017-11-09T23:15:46.471Z,93.90
2017-11-09T23:18:16.348Z,94.10
2017-11-09T23:20:46.228Z,94.10
2017-11-09T23:23:13.124Z,94.10
2017-11-09T23:25:41.700Z,94.10
2017-11-09T23:28:08.729Z,93.80
2017-11-09T23:30:35.682Z,93.80
2017-11-09T23:33:02.527Z,93.90
2017-11-09T23:35:29.474Z,94.10
2017-11-09T23:37:56.397Z,94.00
2017-11-09T23:40:23.321Z,93.80
2017-11-09T23:42:50.201Z,93.70
2017-11-09T23:45:17.077Z,93.60
2017-11-09T23:47:44.016Z,93.50
2017-11-09T23:50:10.903Z,93.70
2017-11-09T23:52:37.802Z,93.90
2017-11-09T23:55:04.781Z,93.80
2017-11-09T23:57:31.720Z,93.80
2017-11-09T23:59:58.605Z,93.70
